createdAt,value
2022-12-22T00:00:32.123Z,9.680775
2022-12-22T00:01:32.144Z,9.680892
2022-12-22T00:02:32.263Z,9.680937
2022-12-22T00:03:32.220Z,9.681143
2022-12-22T00:04:32.064Z,9.681350
2022-12-22T00:05:32.061Z,9.681315
2022-12-22T00:06:32.073Z,9.680741
2022-12-22T00:07:32.102Z,9.680882
2022-12-22T00:08:32.056Z,9.680572
2022-12-22T00:09:32.031Z,9.680147
2022-12-22T00:10:32.040Z,9.680535
2022-12-22T00:11:32.034Z,9.680544
2022-12-22T00:12:32.026Z,9.680658
2022-12-22T00:13:32.037Z,9.681058
2022-12-22T00:14:31.999Z,9.681072
2022-12-22T00:15:31.996Z,9.681295
2022-12-22T00:16:32.071Z,9.681190
2022-12-22T00:17:31.980Z,9.681192
2022-12-22T00:18:31.977Z,9.681161
2022-12-22T00:19:32.007Z,9.681067
2022-12-22T00:20:31.978Z,9.681022
2022-12-22T00:21:31.969Z,9.681055
2022-12-22T00:22:31.947Z,9.681262
2022-12-22T00:23:31.939Z,9.680876
2022-12-22T00:24:31.960Z,9.680596
2022-12-22T00:25:31.960Z,9.680799
2022-12-22T00:26:31.941Z,9.680692
2022-12-22T00:27:31.930Z,9.680905
2022-12-22T00:28:31.906Z,9.681396
2022-12-22T00:29:31.934Z,9.681505
2022-12-22T00:30:31.977Z,9.681329
2022-12-22T00:31:31.896Z,9.681210
2022-12-22T00:32:31.906Z,9.681298
2022-12-22T00:33:31.897Z,9.681340
2022-12-22T00:34:32.768Z,9.680953
2022-12-22T00:35:31.871Z,9.681119
2022-12-22T00:36:31.869Z,9.681046
2022-12-22T00:37:31.891Z,9.681480
2022-12-22T00:38:31.864Z,9.680997
2022-12-22T00:39:31.840Z,9.681320
2022-12-22T00:40:31.834Z,9.681323
2022-12-22T00:41:31.831Z,9.681441
2022-12-22T00:42:31.845Z,9.681405
2022-12-22T00:43:31.847Z,9.681736
2022-12-22T00:44:31.810Z,9.681091
2022-12-22T00:45:31.904Z,9.681474
2022-12-22T00:46:31.855Z,9.681424
2022-12-22T00:47:31.823Z,9.681536
2022-12-22T00:48:31.784Z,9.681313
2022-12-22T00:49:31.784Z,9.681654
2022-12-22T00:50:31.781Z,9.681244
2022-12-22T00:51:31.786Z,9.681681
2022-12-22T00:52:31.787Z,9.681377
2022-12-22T00:53:31.785Z,9.681567
2022-12-22T00:54:31.747Z,9.681611
2022-12-22T00:55:31.755Z,9.681108
2022-12-22T00:56:31.747Z,9.681180
2022-12-22T00:57:31.745Z,9.681250
2022-12-22T00:58:31.728Z,9.681599
2022-12-22T00:59:31.740Z,9.681549
2022-12-22T01:00:31.710Z,9.681466
2022-12-22T01:01:31.853Z,9.681395
2022-12-22T01:02:31.880Z,9.680974
2022-12-22T01:03:31.730Z,9.682029
2022-12-22T01:04:31.714Z,9.681675
2022-12-22T01:05:31.697Z,9.681048
2022-12-22T01:06:31.683Z,9.680810
2022-12-22T01:07:31.680Z,9.680953
2022-12-22T01:08:31.671Z,9.681134
2022-12-22T01:09:31.666Z,9.681238
2022-12-22T01:10:31.707Z,9.681220
2022-12-22T01:11:31.648Z,9.680934
2022-12-22T01:12:31.646Z,9.681304
2022-12-22T01:13:31.649Z,9.681288
2022-12-22T01:14:31.636Z,9.681533
2022-12-22T01:15:31.671Z,9.681369
2022-12-22T01:16:31.677Z,9.680959
2022-12-22T01:17:31.615Z,9.681011
2022-12-22T01:18:31.601Z,9.681493
2022-12-22T01:19:31.603Z,9.681086
2022-12-22T01:20:31.611Z,9.680903
2022-12-22T01:21:31.582Z,9.680914
2022-12-22T01:22:31.595Z,9.680981
2022-12-22T01:23:31.577Z,9.680471
2022-12-22T01:24:31.567Z,9.682154
2022-12-22T01:25:31.567Z,9.681206
2022-12-22T01:26:31.564Z,9.680877
2022-12-22T01:27:31.555Z,9.681273
2022-12-22T01:28:31.561Z,9.681206
2022-12-22T01:29:31.558Z,9.680810
2022-12-22T01:30:31.561Z,9.680771
2022-12-22T01:31:31.534Z,9.680728
2022-12-22T01:32:31.547Z,9.681171
2022-12-22T01:33:31.518Z,9.680918
2022-12-22T01:34:31.541Z,9.680821
2022-12-22T01:35:31.503Z,9.681416
2022-12-22T01:36:31.494Z,9.680471
2022-12-22T01:37:31.555Z,9.680180
2022-12-22T01:38:31.482Z,9.680982
2022-12-22T01:39:31.484Z,9.680369
2022-12-22T01:40:31.473Z,9.680582
2022-12-22T01:41:31.464Z,9.680230
2022-12-22T01:42:31.452Z,9.681124
2022-12-22T01:43:31.485Z,9.681014
2022-12-22T01:44:31.472Z,9.680361
2022-12-22T01:45:31.447Z,9.680705
2022-12-22T01:46:31.514Z,9.681325
2022-12-22T01:47:31.433Z,9.680942
2022-12-22T01:48:31.436Z,9.680897
2022-12-22T01:49:31.454Z,9.681313
2022-12-22T01:50:31.428Z,9.680863
2022-12-22T01:51:31.412Z,9.680957
2022-12-22T01:52:31.428Z,9.681108
2022-12-22T01:53:31.403Z,9.680857
2022-12-22T01:54:31.381Z,9.680905
2022-12-22T01:55:31.409Z,9.680525
2022-12-22T01:56:31.386Z,9.680694
2022-12-22T01:57:31.375Z,9.681024
2022-12-22T01:58:31.369Z,9.680079
2022-12-22T01:59:31.455Z,9.680711
2022-12-22T02:00:31.376Z,9.680779
2022-12-22T02:01:31.449Z,9.680586
2022-12-22T02:02:31.474Z,9.680861
2022-12-22T02:03:31.430Z,9.681179
2022-12-22T02:04:31.332Z,9.680773
2022-12-22T02:05:31.326Z,9.681190
2022-12-22T02:06:31.360Z,9.680925
2022-12-22T02:07:31.315Z,9.680687
2022-12-22T02:08:31.320Z,9.680687
2022-12-22T02:09:31.300Z,9.681032
2022-12-22T02:10:31.298Z,9.680157
2022-12-22T02:11:31.290Z,9.681189
2022-12-22T02:12:31.290Z,9.681205
2022-12-22T02:13:31.289Z,9.680589
2022-12-22T02:14:31.317Z,9.680589
2022-12-22T02:15:31.291Z,9.680589
2022-12-22T02:16:31.313Z,9.680604
2022-12-22T02:17:31.258Z,9.680576
2022-12-22T02:18:31.286Z,9.680574
2022-12-22T02:19:31.262Z,9.680574
2022-12-22T02:20:31.239Z,9.680574
2022-12-22T02:21:31.237Z,9.680574
2022-12-22T02:22:31.245Z,9.680574
2022-12-22T02:23:31.221Z,9.680574
2022-12-22T02:24:31.226Z,9.680574
2022-12-22T02:25:31.209Z,9.680574
2022-12-22T02:26:31.195Z,9.680574
2022-12-22T02:27:31.212Z,9.680574
2022-12-22T02:28:31.207Z,9.680574
2022-12-22T02:29:31.218Z,9.680574
2022-12-22T02:30:31.186Z,9.680453
2022-12-22T02:31:31.218Z,9.680743
2022-12-22T02:32:31.162Z,9.680743
2022-12-22T02:33:31.168Z,9.681005
2022-12-22T02:34:31.169Z,9.680973
2022-12-22T02:35:31.197Z,9.680973
2022-12-22T02:36:31.154Z,9.680973
2022-12-22T02:37:31.139Z,9.680973
2022-12-22T02:38:31.138Z,9.680973
2022-12-22T02:39:31.128Z,9.680973
2022-12-22T02:40:35.691Z,9.681437
2022-12-22T02:41:32.112Z,9.681437
2022-12-22T02:42:31.102Z,9.681437
2022-12-22T02:43:31.100Z,9.681437
2022-12-22T02:44:31.091Z,9.681254
2022-12-22T02:45:31.113Z,9.680935
2022-12-22T02:46:31.170Z,9.680939
2022-12-22T02:47:31.086Z,9.680886
2022-12-22T02:48:31.069Z,9.681026
2022-12-22T02:49:31.067Z,9.680959
2022-12-22T02:50:31.051Z,9.680842
2022-12-22T02:51:31.073Z,9.681049
2022-12-22T02:52:31.040Z,9.681083
2022-12-22T02:53:31.047Z,9.681400
2022-12-22T02:54:31.047Z,9.681211
2022-12-22T02:55:31.027Z,9.681212
2022-12-22T02:56:31.048Z,9.681089
2022-12-22T02:57:31.041Z,9.681107
2022-12-22T02:58:31.010Z,9.681078
2022-12-22T02:59:31.031Z,9.681179
2022-12-22T03:00:30.999Z,9.681057
2022-12-22T03:01:31.206Z,9.681149
2022-12-22T03:02:31.148Z,9.681011
2022-12-22T03:03:31.173Z,9.681019
2022-12-22T03:04:30.971Z,9.680806
2022-12-22T03:05:30.979Z,9.680900
2022-12-22T03:06:30.961Z,9.681074
2022-12-22T03:07:30.974Z,9.681173
2022-12-22T03:08:30.944Z,9.680961
2022-12-22T03:09:30.947Z,9.681086
2022-12-22T03:10:30.953Z,9.680979
2022-12-22T03:11:30.930Z,9.681028
2022-12-22T03:12:30.929Z,9.680945
2022-12-22T03:13:30.923Z,9.681040
2022-12-22T03:14:30.902Z,9.680921
2022-12-22T03:15:30.930Z,9.681194
2022-12-22T03:16:30.939Z,9.680969
2022-12-22T03:17:30.911Z,9.680619
2022-12-22T03:18:30.877Z,9.680884
2022-12-22T03:19:30.897Z,9.680660
2022-12-22T03:20:30.881Z,9.680801
2022-12-22T03:21:30.861Z,9.681128
2022-12-22T03:22:30.871Z,9.681551
2022-12-22T03:23:30.858Z,9.681508
2022-12-22T03:24:30.848Z,9.681275
2022-12-22T03:25:30.855Z,9.681335
2022-12-22T03:26:30.855Z,9.680915
2022-12-22T03:27:30.834Z,9.681086
2022-12-22T03:28:30.811Z,9.681463
2022-12-22T03:29:30.816Z,9.681123
2022-12-22T03:30:30.808Z,9.681314
2022-12-22T03:31:30.866Z,9.681279
2022-12-22T03:32:30.819Z,9.680975
2022-12-22T03:33:30.794Z,9.681136
2022-12-22T03:34:30.783Z,9.681050
2022-12-22T03:35:30.777Z,9.681370
2022-12-22T03:36:30.768Z,9.681309
2022-12-22T03:37:30.763Z,9.681128
2022-12-22T03:38:30.797Z,9.681021
2022-12-22T03:39:30.748Z,9.680977
2022-12-22T03:40:30.739Z,9.681135
2022-12-22T03:41:30.746Z,9.680860
2022-12-22T03:42:30.734Z,9.681064
2022-12-22T03:43:30.727Z,9.681005
2022-12-22T03:44:30.734Z,9.680774
2022-12-22T03:45:30.723Z,9.680916
2022-12-22T03:46:30.811Z,9.681055
2022-12-22T03:47:30.704Z,9.681500
2022-12-22T03:48:30.716Z,9.681268
2022-12-22T03:49:30.711Z,9.681139
2022-12-22T03:50:30.680Z,9.681351
2022-12-22T03:51:30.681Z,9.681270
2022-12-22T03:52:30.674Z,9.680964
2022-12-22T03:53:30.667Z,9.680866
2022-12-22T03:54:30.654Z,9.681197
2022-12-22T03:55:30.667Z,9.681295
2022-12-22T03:56:30.648Z,9.681276
2022-12-22T03:57:30.686Z,9.680970
2022-12-22T03:58:30.639Z,9.681447
2022-12-22T03:59:30.653Z,9.680970
2022-12-22T04:00:30.632Z,9.681029
2022-12-22T04:01:30.774Z,9.680829
2022-12-22T04:02:30.683Z,9.680984
2022-12-22T04:03:30.641Z,9.680709
2022-12-22T04:04:30.619Z,9.680760
2022-12-22T04:05:30.615Z,9.681044
2022-12-22T04:06:30.601Z,9.681209
2022-12-22T04:07:30.579Z,9.681151
2022-12-22T04:08:30.596Z,9.681345
2022-12-22T04:15:36.226Z,9.680279
2022-12-22T04:16:36.279Z,9.680279
2022-12-22T04:17:36.241Z,9.680279
2022-12-22T04:18:36.210Z,9.680279
2022-12-22T04:19:36.200Z,9.681569
2022-12-22T04:20:36.220Z,9.680519
2022-12-22T04:21:36.188Z,9.680270
2022-12-22T04:22:36.209Z,9.680442
2022-12-22T04:23:36.183Z,9.680492
2022-12-22T04:24:36.192Z,9.680352
2022-12-22T04:25:36.160Z,9.680696
2022-12-22T04:26:36.190Z,9.680982
2022-12-22T04:27:36.154Z,9.680757
2022-12-22T04:28:36.213Z,9.680779
2022-12-22T04:29:36.144Z,9.680359
2022-12-22T04:30:36.153Z,9.680663
2022-12-22T04:31:36.142Z,9.681197
2022-12-22T04:32:36.125Z,9.681565
2022-12-22T04:33:36.120Z,9.681540
2022-12-22T04:34:36.140Z,9.680831
2022-12-22T04:35:36.104Z,9.681093
2022-12-22T04:36:36.095Z,9.681165
2022-12-22T04:37:36.089Z,9.680969
2022-12-22T04:38:36.083Z,9.681077
2022-12-22T04:39:36.083Z,9.680639
2022-12-22T04:40:36.095Z,9.680825
2022-12-22T04:41:36.078Z,9.681136
2022-12-22T04:42:36.069Z,9.680783
2022-12-22T04:43:36.061Z,9.680993
2022-12-22T04:44:36.066Z,9.680543
2022-12-22T04:45:36.102Z,9.681896
2022-12-22T04:46:36.058Z,9.682263
2022-12-22T04:47:36.036Z,9.682040
2022-12-22T04:48:36.039Z,9.681223
2022-12-22T04:49:36.023Z,9.681285
2022-12-22T04:50:36.035Z,9.680987
2022-12-22T04:51:36.034Z,9.680980
2022-12-22T04:52:36.012Z,9.680980
2022-12-22T04:53:36.013Z,9.680798
2022-12-22T04:54:35.986Z,9.680758
2022-12-22T04:55:35.984Z,9.680160
2022-12-22T04:56:36.007Z,9.681257
2022-12-22T04:57:40.499Z,9.681490
2022-12-22T04:58:36.968Z,9.681039
2022-12-22T04:59:35.973Z,9.681181
2022-12-22T05:00:35.969Z,9.681142
2022-12-22T05:01:36.148Z,9.681254
2022-12-22T05:02:36.133Z,9.681209
2022-12-22T05:03:35.968Z,9.681365
2022-12-22T05:04:35.942Z,9.680902
2022-12-22T05:05:35.955Z,9.680929
2022-12-22T05:06:35.938Z,9.681000
2022-12-22T05:07:35.943Z,9.681138
2022-12-22T05:08:35.969Z,9.680961
2022-12-22T05:09:35.920Z,9.681092
2022-12-22T05:10:35.907Z,9.681417
2022-12-22T05:11:35.891Z,9.681368
2022-12-22T05:12:35.917Z,9.681096
2022-12-22T05:13:35.892Z,9.681132
2022-12-22T05:14:35.908Z,9.681143
2022-12-22T05:15:35.885Z,9.681123
2022-12-22T05:16:35.975Z,9.681117
2022-12-22T05:17:35.862Z,9.681266
2022-12-22T05:18:35.878Z,9.681020
2022-12-22T05:19:35.853Z,9.681101
2022-12-22T05:20:35.865Z,9.680920
2022-12-22T05:21:35.855Z,9.681163
2022-12-22T05:22:35.867Z,9.681418
2022-12-22T05:23:35.842Z,9.681303
2022-12-22T05:24:35.820Z,9.680986
2022-12-22T05:25:35.900Z,9.681059
2022-12-22T05:26:35.833Z,9.681080
2022-12-22T05:27:35.803Z,9.681246
2022-12-22T05:28:35.801Z,9.681193
2022-12-22T05:29:35.841Z,9.681153
2022-12-22T05:30:35.938Z,9.680566
2022-12-22T05:31:35.775Z,9.680874
2022-12-22T05:32:35.792Z,9.681223
2022-12-22T05:33:35.753Z,9.681026
2022-12-22T05:34:35.775Z,9.681169
2022-12-22T05:35:35.790Z,9.681216
2022-12-22T05:36:35.741Z,9.680849
2022-12-22T05:37:35.751Z,9.680986
2022-12-22T05:38:35.748Z,9.681043
2022-12-22T05:39:35.755Z,9.681260
2022-12-22T05:40:35.731Z,9.681152
2022-12-22T05:41:35.715Z,9.681042
2022-12-22T05:42:35.764Z,9.680973
2022-12-22T05:43:35.716Z,9.680916
2022-12-22T05:44:35.718Z,9.681037
2022-12-22T05:45:35.716Z,9.680973
2022-12-22T05:46:35.769Z,9.680828
2022-12-22T05:47:35.683Z,9.680828
2022-12-22T05:48:38.958Z,9.680828
2022-12-22T05:49:35.695Z,9.680828
2022-12-22T05:50:35.661Z,9.680828
2022-12-22T05:51:35.664Z,9.680828
2022-12-22T05:52:35.643Z,9.680828
2022-12-22T05:53:35.640Z,9.680828
2022-12-22T05:54:35.637Z,9.680828
2022-12-22T05:55:35.657Z,9.680828
2022-12-22T05:56:35.626Z,9.680828
2022-12-22T05:57:35.613Z,9.680828
2022-12-22T05:58:35.650Z,9.680828
2022-12-22T05:59:35.609Z,9.680828
2022-12-22T06:00:35.604Z,9.680828
2022-12-22T06:01:35.675Z,9.680828
2022-12-22T06:02:35.870Z,9.680828
2022-12-22T06:03:35.785Z,9.680828
2022-12-22T06:04:35.590Z,9.680828
2022-12-22T06:05:35.578Z,9.680828
2022-12-22T06:06:35.560Z,9.680828
2022-12-22T06:07:35.569Z,9.680828
2022-12-22T06:08:35.596Z,9.680828
2022-12-22T06:09:35.560Z,9.680828
2022-12-22T06:10:35.566Z,9.680828
2022-12-22T06:11:35.570Z,9.680828
2022-12-22T06:12:35.558Z,9.680828
2022-12-22T06:13:35.558Z,9.680828
2022-12-22T06:14:35.559Z,9.680828
2022-12-22T06:15:35.623Z,9.680828
2022-12-22T06:16:35.646Z,9.680828
2022-12-22T06:17:40.474Z,9.680828
2022-12-22T06:18:35.547Z,9.680828
2022-12-22T06:19:35.498Z,9.680828
2022-12-22T06:20:35.560Z,9.680828
2022-12-22T06:21:35.475Z,9.680828
2022-12-22T06:22:35.512Z,9.680828
2022-12-22T06:23:35.473Z,9.680828
2022-12-22T06:24:35.467Z,9.680828
2022-12-22T06:25:35.456Z,9.680828
2022-12-22T06:26:35.460Z,9.680828
2022-12-22T06:27:35.483Z,9.680828
2022-12-22T06:28:35.459Z,9.680828
2022-12-22T06:29:35.447Z,9.680828
2022-12-22T06:30:35.427Z,9.680828
2022-12-22T06:31:35.531Z,9.680828
2022-12-22T06:32:35.422Z,9.680828
2022-12-22T06:33:35.412Z,9.681078
2022-12-22T06:34:35.404Z,9.681049
2022-12-22T06:35:35.387Z,9.680939
2022-12-22T06:36:35.396Z,9.680904
2022-12-22T06:37:35.402Z,9.681062
2022-12-22T06:38:35.372Z,9.681094
2022-12-22T06:39:35.371Z,9.680985
2022-12-22T06:40:35.362Z,9.681479
2022-12-22T06:41:35.355Z,9.681197
2022-12-22T06:42:35.388Z,9.681250
2022-12-22T06:43:35.338Z,9.681260
2022-12-22T06:44:35.339Z,9.681164
2022-12-22T06:45:35.332Z,9.681257
2022-12-22T06:46:35.396Z,9.681294
2022-12-22T06:47:35.320Z,9.681308
2022-12-22T06:48:35.332Z,9.681188
2022-12-22T06:49:35.299Z,9.680824
2022-12-22T06:50:35.288Z,9.681166
2022-12-22T06:51:35.291Z,9.681046
2022-12-22T06:52:35.289Z,9.680853
2022-12-22T06:53:35.276Z,9.680992
2022-12-22T06:54:35.305Z,9.681430
2022-12-22T06:55:35.270Z,9.681337
2022-12-22T06:56:35.262Z,9.681392
2022-12-22T06:57:35.257Z,9.681200
2022-12-22T06:58:35.260Z,9.681128
2022-12-22T06:59:35.252Z,9.681450
2022-12-22T07:00:35.297Z,9.681302
2022-12-22T07:01:35.317Z,9.681470
2022-12-22T07:02:35.622Z,9.681229
2022-12-22T07:03:35.292Z,9.681042
2022-12-22T07:04:35.207Z,9.681178
2022-12-22T07:05:35.201Z,9.681550
2022-12-22T07:06:35.228Z,9.681484
2022-12-22T07:07:35.207Z,9.681189
2022-12-22T07:08:35.196Z,9.681010
2022-12-22T07:09:35.200Z,9.680795
2022-12-22T07:10:35.178Z,9.681261
2022-12-22T07:11:35.175Z,9.680668
2022-12-22T07:12:35.200Z,9.680512
2022-12-22T07:13:35.163Z,9.680658
2022-12-22T07:14:35.154Z,9.680882
2022-12-22T07:15:35.179Z,9.681211
2022-12-22T07:16:35.197Z,9.681956
2022-12-22T07:17:35.169Z,9.681520
2022-12-22T07:18:35.158Z,9.681167
2022-12-22T07:19:35.122Z,9.680943
2022-12-22T07:20:35.138Z,9.680960
2022-12-22T07:21:35.131Z,9.680747
2022-12-22T07:22:35.105Z,9.680825
2022-12-22T07:23:35.118Z,9.680692
2022-12-22T07:24:35.089Z,9.680735
2022-12-22T07:25:35.103Z,9.680745
2022-12-22T07:26:35.100Z,9.680758
2022-12-22T07:27:35.084Z,9.680769
2022-12-22T07:28:35.141Z,9.680730
2022-12-22T07:29:35.060Z,9.680742
2022-12-22T07:30:35.055Z,9.680817
2022-12-22T07:31:35.107Z,9.680777
2022-12-22T07:32:35.105Z,9.680803
2022-12-22T07:33:35.038Z,9.680709
2022-12-22T07:34:35.055Z,9.680520
2022-12-22T07:35:35.023Z,9.680855
2022-12-22T07:36:35.045Z,9.680876
2022-12-22T07:37:35.058Z,9.680839
2022-12-22T07:38:35.034Z,9.680943
2022-12-22T07:39:35.009Z,9.680910
2022-12-22T07:40:41.136Z,9.680868
2022-12-22T07:41:35.992Z,9.680876
2022-12-22T07:42:34.996Z,9.680950
2022-12-22T07:43:34.970Z,9.680336
2022-12-22T07:44:35.012Z,9.680653
2022-12-22T07:45:34.980Z,9.680654
2022-12-22T07:46:34.993Z,9.680962
2022-12-22T07:47:35.678Z,9.681169
2022-12-22T07:48:34.971Z,9.681250
2022-12-22T07:49:34.941Z,9.680974
2022-12-22T07:50:34.932Z,9.681178
2022-12-22T07:51:34.933Z,9.680196
2022-12-22T07:52:34.917Z,9.679895
2022-12-22T07:53:34.940Z,9.680798
2022-12-22T07:54:41.155Z,9.681141
2022-12-22T07:55:35.899Z,9.681141
2022-12-22T07:56:34.907Z,9.681141
2022-12-22T07:57:34.917Z,9.681141
2022-12-22T07:58:34.949Z,9.681141
2022-12-22T07:59:34.895Z,9.681141
2022-12-22T08:00:34.880Z,9.681141
2022-12-22T08:01:35.052Z,9.681141
2022-12-22T08:02:38.792Z,9.681141
2022-12-22T08:03:34.910Z,9.681141
2022-12-22T08:04:34.969Z,9.681141
2022-12-22T08:05:34.886Z,9.681141
2022-12-22T08:06:34.859Z,9.681141
2022-12-22T08:07:34.837Z,9.681141
2022-12-22T08:08:34.830Z,9.681141
2022-12-22T08:09:34.824Z,9.681141
2022-12-22T08:10:34.857Z,9.681141
2022-12-22T08:11:34.826Z,9.681141
2022-12-22T08:12:34.850Z,9.681141
2022-12-22T08:13:34.819Z,9.681141
2022-12-22T08:14:34.810Z,9.681141
2022-12-22T08:15:34.797Z,9.681141
2022-12-22T08:16:34.870Z,9.681141
2022-12-22T08:17:34.781Z,9.681141
2022-12-22T08:18:34.793Z,9.681141
2022-12-22T08:19:34.774Z,9.681141
2022-12-22T08:20:34.775Z,9.681141
2022-12-22T08:21:34.785Z,9.681141
2022-12-22T08:22:34.781Z,9.681141
2022-12-22T08:23:34.761Z,9.681141
2022-12-22T08:24:34.767Z,9.681141
2022-12-22T08:25:34.750Z,9.681141
2022-12-22T08:26:34.738Z,9.681141
2022-12-22T08:27:34.725Z,9.681141
2022-12-22T08:28:34.733Z,9.681141
2022-12-22T08:29:34.728Z,9.681141
2022-12-22T08:30:34.734Z,9.681141
2022-12-22T08:31:34.807Z,9.681141
2022-12-22T08:32:34.702Z,9.681141
2022-12-22T08:33:34.720Z,9.681141
2022-12-22T08:34:34.683Z,9.681141
2022-12-22T08:35:34.731Z,9.681141
2022-12-22T08:36:34.690Z,9.681141
2022-12-22T08:37:34.695Z,9.682050
2022-12-22T08:38:34.659Z,9.682034
2022-12-22T08:39:34.652Z,9.680894
2022-12-22T08:40:34.655Z,9.680527
2022-12-22T08:41:34.671Z,9.680491
2022-12-22T08:42:34.639Z,9.680602
2022-12-22T08:43:34.616Z,9.680602
2022-12-22T08:44:34.644Z,9.680602
2022-12-22T08:45:34.643Z,9.680602
2022-12-22T08:46:34.657Z,9.680524
2022-12-22T08:47:34.652Z,9.680497
2022-12-22T08:48:34.622Z,9.680106
2022-12-22T08:49:34.594Z,9.680548
2022-12-22T08:50:34.624Z,9.680759
2022-12-22T08:51:34.587Z,9.680537
2022-12-22T08:52:34.594Z,9.680663
2022-12-22T08:54:03.806Z,9.680542
2022-12-22T08:54:35.589Z,9.680845
2022-12-22T08:55:34.582Z,9.680718
2022-12-22T08:56:34.561Z,9.680824
2022-12-22T08:57:34.555Z,9.680844
2022-12-22T08:58:34.532Z,9.680894
2022-12-22T08:59:34.546Z,9.680970
2022-12-22T09:00:34.548Z,9.680836
2022-12-22T09:01:34.591Z,9.680652
2022-12-22T09:02:34.630Z,9.680884
2022-12-22T09:03:34.640Z,9.680892
2022-12-22T09:04:34.509Z,9.680906
2022-12-22T09:05:34.528Z,9.680712
2022-12-22T09:06:40.628Z,9.680927
2022-12-22T09:07:35.505Z,9.680843
2022-12-22T09:08:34.483Z,9.680747
2022-12-22T09:09:34.523Z,9.680615
2022-12-22T09:10:34.489Z,9.680703
2022-12-22T09:11:34.462Z,9.680987
2022-12-22T09:12:34.449Z,9.681112
2022-12-22T09:13:34.446Z,9.680943
2022-12-22T09:14:34.466Z,9.680888
2022-12-22T09:15:34.433Z,9.680742
2022-12-22T09:16:34.542Z,9.680756
2022-12-22T09:17:34.432Z,9.680756
2022-12-22T09:18:34.426Z,9.680756
2022-12-22T09:19:34.396Z,9.680756
2022-12-22T09:20:34.430Z,9.680756
2022-12-22T09:21:34.400Z,9.680756
2022-12-22T09:22:34.384Z,9.680756
2022-12-22T09:23:34.390Z,9.680756
2022-12-22T09:24:34.386Z,9.680756
2022-12-22T09:25:34.388Z,9.680756
2022-12-22T09:26:34.380Z,9.680756
2022-12-22T09:27:34.405Z,9.680756
2022-12-22T09:28:34.351Z,9.680756
2022-12-22T09:29:34.352Z,9.680756
2022-12-22T09:30:34.328Z,9.680756
2022-12-22T09:31:34.412Z,9.680543
2022-12-22T09:32:34.364Z,9.680569
2022-12-22T09:33:34.316Z,9.681025
2022-12-22T09:34:34.313Z,9.681124
2022-12-22T09:35:34.327Z,9.681124
2022-12-22T09:36:34.304Z,9.681124
2022-12-22T09:37:34.289Z,9.681421
2022-12-22T09:38:34.326Z,9.681443
2022-12-22T09:39:34.296Z,9.681527
2022-12-22T09:40:34.285Z,9.681386
2022-12-22T09:41:34.278Z,9.681414
2022-12-22T09:42:34.311Z,9.681348
2022-12-22T09:43:34.279Z,9.681426
2022-12-22T09:44:34.244Z,9.681540
2022-12-22T09:45:34.325Z,9.681270
2022-12-22T09:46:34.256Z,9.681501
2022-12-22T09:47:34.247Z,9.681274
2022-12-22T09:48:34.216Z,9.681344
2022-12-22T09:49:34.208Z,9.681127
2022-12-22T09:50:34.241Z,9.681491
2022-12-22T09:51:34.218Z,9.681539
2022-12-22T09:52:34.201Z,9.681557
2022-12-22T09:53:34.221Z,9.682072
2022-12-22T09:54:34.195Z,9.682164
2022-12-22T09:55:34.185Z,9.681667
2022-12-22T09:56:34.175Z,9.681931
2022-12-22T09:57:34.179Z,9.682014
2022-12-22T09:58:34.182Z,9.682163
2022-12-22T09:59:34.168Z,9.682163
2022-12-22T10:00:34.143Z,9.681458
2022-12-22T10:01:34.280Z,9.681458
2022-12-22T10:02:34.195Z,9.681458
2022-12-22T10:03:34.219Z,9.681458
2022-12-22T10:04:34.136Z,9.681458
2022-12-22T10:05:34.116Z,9.681458
2022-12-22T10:06:34.099Z,9.681458
2022-12-22T10:07:34.127Z,9.681458
2022-12-22T10:08:34.093Z,9.681458
2022-12-22T10:09:51.605Z,9.681458
2022-12-22T10:10:35.102Z,9.681458
2022-12-22T10:11:34.060Z,9.681458
2022-12-22T10:12:34.057Z,9.681458
2022-12-22T10:13:34.069Z,9.681458
2022-12-22T10:14:34.085Z,9.681458
2022-12-22T10:15:34.085Z,9.681458
2022-12-22T10:16:34.072Z,9.681458
2022-12-22T10:17:34.035Z,9.681458
2022-12-22T10:18:34.061Z,9.681458
2022-12-22T10:19:34.023Z,9.681458
2022-12-22T10:20:34.033Z,9.681458
2022-12-22T10:21:34.057Z,9.681458
2022-12-22T10:22:34.026Z,9.681458
2022-12-22T10:23:34.013Z,9.681458
2022-12-22T10:24:33.989Z,9.681458
2022-12-22T10:25:52.521Z,9.681458
2022-12-22T10:26:35.010Z,9.681458
2022-12-22T10:27:35.284Z,9.681458
2022-12-22T10:28:33.999Z,9.681458
2022-12-22T10:29:33.951Z,9.681458
2022-12-22T10:30:33.952Z,9.681458
2022-12-22T10:31:34.057Z,9.681458
2022-12-22T10:32:33.944Z,9.681458
2022-12-22T10:33:33.953Z,9.681458
2022-12-22T10:34:33.919Z,9.681458
2022-12-22T10:35:33.914Z,9.681458
2022-12-22T10:36:33.932Z,9.681458
2022-12-22T10:37:33.908Z,9.681458
2022-12-22T10:38:33.915Z,9.681458
2022-12-22T10:39:33.920Z,9.681458
2022-12-22T10:40:33.882Z,9.681458
2022-12-22T10:41:33.917Z,9.681458
2022-12-22T10:42:33.888Z,9.681458
2022-12-22T10:43:33.887Z,9.681458
2022-12-22T10:44:33.855Z,9.681458
2022-12-22T10:45:33.920Z,9.681458
2022-12-22T10:46:33.908Z,9.681458
2022-12-22T10:47:33.836Z,9.681458
2022-12-22T10:48:33.814Z,9.681458
2022-12-22T11:13:20.381Z,9.680992
2022-12-22T11:14:20.337Z,9.680992
2022-12-22T11:15:24.329Z,9.680992
2022-12-22T11:16:27.398Z,9.680992
2022-12-22T11:17:20.374Z,9.680892
2022-12-22T11:18:20.317Z,9.681202
2022-12-22T11:19:20.343Z,9.681258
2022-12-22T11:20:20.306Z,9.681227
2022-12-22T11:21:24.097Z,9.681095
2022-12-22T11:22:20.352Z,9.681168
2022-12-22T11:23:20.284Z,9.681190
2022-12-22T11:24:20.281Z,9.681079
2022-12-22T11:25:20.274Z,9.680997
2022-12-22T11:26:20.262Z,9.680822
2022-12-22T11:27:20.337Z,9.680797
2022-12-22T11:28:20.284Z,9.680449
2022-12-22T11:29:20.279Z,9.680704
2022-12-22T11:30:20.269Z,9.681134
2022-12-22T11:31:20.315Z,9.681311
2022-12-22T11:32:20.238Z,9.681643
2022-12-22T11:33:20.212Z,9.681441
2022-12-22T11:34:21.479Z,9.681555
2022-12-22T11:35:20.193Z,9.681361
2022-12-22T11:36:20.197Z,9.681046
2022-12-22T11:37:20.246Z,9.680832
2022-12-22T11:38:20.212Z,9.680736
2022-12-22T11:39:20.206Z,9.680779
2022-12-22T11:40:20.181Z,9.680471
2022-12-22T11:41:20.192Z,9.681145
2022-12-22T11:42:20.182Z,9.681185
2022-12-22T11:43:20.174Z,9.680914
2022-12-22T11:44:20.171Z,9.680914
2022-12-22T11:45:20.151Z,9.680960
2022-12-22T11:46:20.200Z,9.680980
2022-12-22T11:47:20.193Z,9.681113
2022-12-22T11:48:20.125Z,9.681113
2022-12-22T11:49:20.128Z,9.681192
2022-12-22T11:50:59.617Z,9.681076
2022-12-22T11:51:27.143Z,9.681076
2022-12-22T11:52:21.122Z,9.681231
2022-12-22T11:53:20.088Z,9.680828
2022-12-22T11:54:20.092Z,9.680494
2022-12-22T11:55:20.108Z,9.680531
2022-12-22T11:56:20.083Z,9.680760
2022-12-22T11:57:20.074Z,9.680966
2022-12-22T11:58:20.061Z,9.681065
2022-12-22T11:59:20.043Z,9.681065
2022-12-22T12:00:20.109Z,9.680761
2022-12-22T12:01:25.744Z,9.681160
2022-12-22T12:02:21.206Z,9.681205
2022-12-22T12:03:20.114Z,9.680913
2022-12-22T12:04:20.081Z,9.680993
2022-12-22T12:05:20.025Z,9.681010
2022-12-22T12:06:20.014Z,9.680831
2022-12-22T12:07:25.443Z,9.680747
2022-12-22T12:08:21.006Z,9.680900
2022-12-22T12:09:19.979Z,9.680951
2022-12-22T12:10:19.993Z,9.680839
2022-12-22T12:11:19.999Z,9.680690
2022-12-22T12:12:19.994Z,9.680950
2022-12-22T12:13:26.601Z,9.680858
2022-12-22T12:14:20.973Z,9.680737